sensor_id;sensor_type;location;lat;lon;timestamp;temperature;humidity
3816;DHT22;1923;48.154;11.536;2023-02-17T07:06:51;9.10;99.90
3816;DHT22;1923;48.154;11.536;2023-02-17T07:09:19;11.30;99.90
3816;DHT22;1923;48.154;11.536;2023-02-17T07:11:47;11.40;99.90
3816;DHT22;1923;48.154;11.536;2023-02-17T07:14:17;11.50;99.70
3816;DHT22;1923;48.154;11.536;2023-02-17T07:16:45;11.50;99.50
3816;DHT22;1923;48.154;11.536;2023-02-17T07:19:13;11.60;99.60
3816;DHT22;1923;48.154;11.536;2023-02-17T07:21:42;11.70;99.40
3816;DHT22;1923;48.154;11.536;2023-02-17T07:24:11;11.70;99.60
3816;DHT22;1923;48.154;11.536;2023-02-17T07:26:40;11.90;99.50
3816;DHT22;1923;48.154;11.536;2023-02-17T07:29:08;12.10;99.70
3816;DHT22;1923;48.154;11.536;2023-02-17T07:31:36;12.40;99.60
3816;DHT22;1923;48.154;11.536;2023-02-17T07:34:04;12.40;99.60
3816;DHT22;1923;48.154;11.536;2023-02-17T07:36:32;12.40;99.90
3816;DHT22;1923;48.154;11.536;2023-02-17T07:39:02;12.60;99.80
3816;DHT22;1923;48.154;11.536;2023-02-17T07:41:31;12.60;99.80
3816;DHT22;1923;48.154;11.536;2023-02-17T07:44:00;12.80;99.70
3816;DHT22;1923;48.154;11.536;2023-02-17T07:46:28;12.90;99.40
3816;DHT22;1923;48.154;11.536;2023-02-17T07:48:56;12.90;99.40
3816;DHT22;1923;48.154;11.536;2023-02-17T07:51:24;13.00;99.30
3816;DHT22;1923;48.154;11.536;2023-02-17T07:53:53;13.00;99.30
3816;DHT22;1923;48.154;11.536;2023-02-17T07:56:21;12.80;99.40
3816;DHT22;1923;48.154;11.536;2023-02-17T07:58:51;12.90;99.20
3816;DHT22;1923;48.154;11.536;2023-02-17T08:01:20;12.80;99.40
3816;DHT22;1923;48.154;11.536;2023-02-17T08:03:49;12.90;99.60
3816;DHT22;1923;48.154;11.536;2023-02-17T08:06:20;12.90;99.90
3816;DHT22;1923;48.154;11.536;2023-02-17T08:08:48;12.80;99.90
3816;DHT22;1923;48.154;11.536;2023-02-17T08:11:34;12.80;99.90
3816;DHT22;1923;48.154;11.536;2023-02-17T08:14:23;12.80;99.90
3816;DHT22;1923;48.154;11.536;2023-02-17T08:16:51;12.70;99.90
3816;DHT22;1923;48.154;11.536;2023-02-17T08:19:20;12.80;99.90
3816;DHT22;1923;48.154;11.536;2023-02-17T08:21:48;12.90;99.90
3816;DHT22;1923;48.154;11.536;2023-02-17T08:24:16;12.90;99.90
3816;DHT22;1923;48.154;11.536;2023-02-17T08:26:45;13.00;99.90
3816;DHT22;1923;48.154;11.536;2023-02-17T08:29:13;13.10;99.90
3816;DHT22;1923;48.154;11.536;2023-02-17T08:31:43;13.10;99.90
3816;DHT22;1923;48.154;11.536;2023-02-17T08:34:13;13.20;99.90
3816;DHT22;1923;48.154;11.536;2023-02-17T08:36:41;13.30;99.90
3816;DHT22;1923;48.154;11.536;2023-02-17T08:39:11;13.30;99.90
3816;DHT22;1923;48.154;11.536;2023-02-17T08:41:42;13.40;99.90
3816;DHT22;1923;48.154;11.536;2023-02-17T08:44:11;13.30;99.90
3816;DHT22;1923;48.154;11.536;2023-02-17T08:46:40;13.40;99.90
3816;DHT22;1923;48.154;11.536;2023-02-17T08:49:10;13.50;99.90
3816;DHT22;1923;48.154;11.536;2023-02-17T08:51:39;13.40;99.90
3816;DHT22;1923;48.154;11.536;2023-02-17T08:54:07;13.50;99.90
3816;DHT22;1923;48.154;11.536;2023-02-17T08:56:38;13.50;99.90
3816;DHT22;1923;48.154;11.536;2023-02-17T08:59:07;13.50;99.90
3816;DHT22;1923;48.154;11.536;2023-02-17T09:01:36;13.50;99.90
3816;DHT22;1923;48.154;11.536;2023-02-17T09:04:06;13.60;99.90
3816;DHT22;1923;48.154;11.536;2023-02-17T09:06:38;13.70;99.90
3816;DHT22;1923;48.154;11.536;2023-02-17T09:09:09;13.60;99.90
3816;DHT22;1923;48.154;11.536;2023-02-17T09:11:39;13.50;99.90
3816;DHT22;1923;48.154;11.536;2023-02-17T09:14:07;13.20;99.90
3816;DHT22;1923;48.154;11.536;2023-02-17T09:16:36;13.10;99.90
3816;DHT22;1923;48.154;11.536;2023-02-17T09:19:07;12.90;99.90
3816;DHT22;1923;48.154;11.536;2023-02-17T09:21:36;12.80;99.90
3816;DHT22;1923;48.154;11.536;2023-02-17T09:24:05;12.70;99.90
3816;DHT22;1923;48.154;11.536;2023-02-17T09:26:33;12.60;99.90
3816;DHT22;1923;48.154;11.536;2023-02-17T09:29:01;12.60;99.90
3816;DHT22;1923;48.154;11.536;2023-02-17T09:31:30;12.80;99.90
3816;DHT22;1923;48.154;11.536;2023-02-17T09:33:58;12.90;99.90
3816;DHT22;1923;48.154;11.536;2023-02-17T09:36:29;13.00;99.90
3816;DHT22;1923;48.154;11.536;2023-02-17T09:38:59;13.20;99.90
3816;DHT22;1923;48.154;11.536;2023-02-17T09:41:33;13.40;99.90
3816;DHT22;1923;48.154;11.536;2023-02-17T09:44:05;13.60;99.90
3816;DHT22;1923;48.154;11.536;2023-02-17T09:46:36;13.70;99.90
3816;DHT22;1923;48.154;11.536;2023-02-17T09:49:27;13.80;99.90
3816;DHT22;1923;48.154;11.536;2023-02-17T09:52:01;13.80;99.90
3816;DHT22;1923;48.154;11.536;2023-02-17T09:54:39;14.10;99.90
3816;DHT22;1923;48.154;11.536;2023-02-17T09:57:13;14.20;99.90
3816;DHT22;1923;48.154;11.536;2023-02-17T09:59:49;14.30;99.90
3816;DHT22;1923;48.154;11.536;2023-02-17T10:02:24;14.40;99.90
3816;DHT22;1923;48.154;11.536;2023-02-17T10:04:55;14.60;99.90
3816;DHT22;1923;48.154;11.536;2023-02-17T10:07:29;14.60;99.90
3816;DHT22;1923;48.154;11.536;2023-02-17T10:10:06;14.50;99.90
3816;DHT22;1923;48.154;11.536;2023-02-17T10:12:38;14.60;99.90
3816;DHT22;1923;48.154;11.536;2023-02-17T10:15:11;14.90;99.90
3816;DHT22;1923;48.154;11.536;2023-02-17T10:17:50;15.50;99.90
3816;DHT22;1923;48.154;11.536;2023-02-17T10:20:21;16.30;99.90
3816;DHT22;1923;48.154;11.536;2023-02-17T10:22:53;16.70;99.90
3816;DHT22;1923;48.154;11.536;2023-02-17T10:25:38;16.90;99.90
3816;DHT22;1923;48.154;11.536;2023-02-17T10:28:17;17.00;98.60
3816;DHT22;1923;48.154;11.536;2023-02-17T10:30:56;17.10;99.30
3816;DHT22;1923;48.154;11.536;2023-02-17T10:33:30;17.10;99.20
3816;DHT22;1923;48.154;11.536;2023-02-17T10:36:10;17.00;98.30
3816;DHT22;1923;48.154;11.536;2023-02-17T10:38:47;17.00;98.60
3816;DHT22;1923;48.154;11.536;2023-02-17T10:41:20;17.10;98.10
3816;DHT22;1923;48.154;11.536;2023-02-17T10:43:49;17.30;98.00
3816;DHT22;1923;48.154;11.536;2023-02-17T10:46:23;18.00;97.30
3816;DHT22;1923;48.154;11.536;2023-02-17T10:48:54;18.70;96.30
3816;DHT22;1923;48.154;11.536;2023-02-17T10:51:26;19.30;95.10
3816;DHT22;1923;48.154;11.536;2023-02-17T10:53:56;20.10;94.70
3816;DHT22;1923;48.154;11.536;2023-02-17T10:56:33;20.50;93.40
3816;DHT22;1923;48.154;11.536;2023-02-17T10:59:05;21.70;92.50
3816;DHT22;1923;48.154;11.536;2023-02-17T11:01:35;22.50;90.20
3816;DHT22;1923;48.154;11.536;2023-02-17T11:04:05;22.70;88.80
3816;DHT22;1923;48.154;11.536;2023-02-17T11:06:36;22.00;87.10
3816;DHT22;1923;48.154;11.536;2023-02-17T11:09:17;21.40;88.20
3816;DHT22;1923;48.154;11.536;2023-02-17T11:11:57;21.70;88.60
3816;DHT22;1923;48.154;11.536;2023-02-17T11:14:27;21.80;86.60
3816;DHT22;1923;48.154;11.536;2023-02-17T11:16:57;21.30;87.70
3816;DHT22;1923;48.154;11.536;2023-02-17T11:19:27;20.60;87.10
3816;DHT22;1923;48.154;11.536;2023-02-17T11:21:57;20.30;88.30
3816;DHT22;1923;48.154;11.536;2023-02-17T11:24:26;19.90;89.20
3816;DHT22;1923;48.154;11.536;2023-02-17T11:26:58;19.40;89.60
3816;DHT22;1923;48.154;11.536;2023-02-17T11:29:27;19.00;90.30
3816;DHT22;1923;48.154;11.536;2023-02-17T11:31:58;19.00;91.00
3816;DHT22;1923;48.154;11.536;2023-02-17T11:34:28;19.20;90.60
3816;DHT22;1923;48.154;11.536;2023-02-17T11:37:00;19.10;90.90
3816;DHT22;1923;48.154;11.536;2023-02-17T11:39:29;19.00;90.80
3816;DHT22;1923;48.154;11.536;2023-02-17T11:41:58;19.20;90.70
3816;DHT22;1923;48.154;11.536;2023-02-17T11:44:27;19.30;90.60
3816;DHT22;1923;48.154;11.536;2023-02-17T11:47:04;19.10;90.40
3816;DHT22;1923;48.154;11.536;2023-02-17T11:50:00;18.70;90.80
3816;DHT22;1923;48.154;11.536;2023-02-17T11:52:40;18.30;91.40
3816;DHT22;1923;48.154;11.536;2023-02-17T11:55:19;17.90;92.00
3816;DHT22;1923;48.154;11.536;2023-02-17T11:57:59;18.00;92.00
3816;DHT22;1923;48.154;11.536;2023-02-17T12:00:38;18.00;92.00
3816;DHT22;1923;48.154;11.536;2023-02-17T12:03:38;17.90;92.10
3816;DHT22;1923;48.154;11.536;2023-02-17T12:06:13;17.90;92.50
3816;DHT22;1923;48.154;11.536;2023-02-17T12:08:56;17.70;92.90
3816;DHT22;1923;48.154;11.536;2023-02-17T12:11:32;17.60;93.10
3816;DHT22;1923;48.154;11.536;2023-02-17T12:14:17;17.60;93.10
3816;DHT22;1923;48.154;11.536;2023-02-17T12:16:52;17.60;93.40
3816;DHT22;1923;48.154;11.536;2023-02-17T12:19:34;17.60;93.40
3816;DHT22;1923;48.154;11.536;2023-02-17T12:22:15;17.50;93.50
3816;DHT22;1923;48.154;11.536;2023-02-17T12:25:08;17.60;93.50
3816;DHT22;1923;48.154;11.536;2023-02-17T12:27:48;17.30;93.80
3816;DHT22;1923;48.154;11.536;2023-02-17T12:30:31;17.10;94.20
3816;DHT22;1923;48.154;11.536;2023-02-17T12:33:28;16.90;94.60
3816;DHT22;1923;48.154;11.536;2023-02-17T12:36:01;16.80;94.90
3816;DHT22;1923;48.154;11.536;2023-02-17T12:38:32;16.70;95.10
3816;DHT22;1923;48.154;11.536;2023-02-17T12:41:04;16.70;95.20
3816;DHT22;1923;48.154;11.536;2023-02-17T12:43:38;16.80;95.10
3816;DHT22;1923;48.154;11.536;2023-02-17T12:46:13;16.80;95.30
3816;DHT22;1923;48.154;11.536;2023-02-17T12:48:45;16.80;95.20
3816;DHT22;1923;48.154;11.536;2023-02-17T12:51:19;16.60;95.50
3816;DHT22;1923;48.154;11.536;2023-02-17T12:53:51;16.60;95.70
3816;DHT22;1923;48.154;11.536;2023-02-17T12:56:46;16.50;95.80
3816;DHT22;1923;48.154;11.536;2023-02-17T12:59:21;16.40;95.90
3816;DHT22;1923;48.154;11.536;2023-02-17T13:01:58;16.30;95.70
3816;DHT22;1923;48.154;11.536;2023-02-17T13:04:28;16.20;96.00
3816;DHT22;1923;48.154;11.536;2023-02-17T13:07:05;16.10;96.00
3816;DHT22;1923;48.154;11.536;2023-02-17T13:09:36;16.10;96.30
3816;DHT22;1923;48.154;11.536;2023-02-17T13:12:29;16.10;96.30
3816;DHT22;1923;48.154;11.536;2023-02-17T13:15:00;16.20;96.40
3816;DHT22;1923;48.154;11.536;2023-02-17T13:17:31;16.10;96.40
3816;DHT22;1923;48.154;11.536;2023-02-17T13:22:49;15.90;97.00
3816;DHT22;1923;48.154;11.536;2023-02-17T13:25:28;15.90;97.40
3816;DHT22;1923;48.154;11.536;2023-02-17T13:27:58;15.90;97.50
3816;DHT22;1923;48.154;11.536;2023-02-17T13:30:36;16.00;97.80
3816;DHT22;1923;48.154;11.536;2023-02-17T13:33:26;16.00;97.90
3816;DHT22;1923;48.154;11.536;2023-02-17T13:35:54;15.90;98.10
3816;DHT22;1923;48.154;11.536;2023-02-17T13:38:26;15.90;98.30
3816;DHT22;1923;48.154;11.536;2023-02-17T13:40:58;15.80;98.50
3816;DHT22;1923;48.154;11.536;2023-02-17T13:43:28;15.80;98.50
3816;DHT22;1923;48.154;11.536;2023-02-17T13:45:59;15.80;98.60
3816;DHT22;1923;48.154;11.536;2023-02-17T13:48:30;15.70;98.80
3816;DHT22;1923;48.154;11.536;2023-02-17T13:51:00;15.50;99.20
3816;DHT22;1923;48.154;11.536;2023-02-17T13:53:30;15.40;99.50
3816;DHT22;1923;48.154;11.536;2023-02-17T13:56:00;15.40;99.50
3816;DHT22;1923;48.154;11.536;2023-02-17T13:58:30;15.30;99.70
3816;DHT22;1923;48.154;11.536;2023-02-17T14:01:00;15.20;99.80
3816;DHT22;1923;48.154;11.536;2023-02-17T14:03:34;15.20;99.90
3816;DHT22;1923;48.154;11.536;2023-02-17T14:06:12;15.00;99.90
3816;DHT22;1923;48.154;11.536;2023-02-17T14:08:41;15.10;99.90
3816;DHT22;1923;48.154;11.536;2023-02-17T14:11:12;15.20;99.90
3816;DHT22;1923;48.154;11.536;2023-02-17T14:13:41;15.20;99.90
3816;DHT22;1923;48.154;11.536;2023-02-17T14:16:26;15.10;99.90
3816;DHT22;1923;48.154;11.536;2023-02-17T14:19:03;15.10;99.90
3816;DHT22;1923;48.154;11.536;2023-02-17T14:21:31;15.00;99.90
3816;DHT22;1923;48.154;11.536;2023-02-17T14:24:00;15.00;99.90
3816;DHT22;1923;48.154;11.536;2023-02-17T14:26:31;15.00;99.90
3816;DHT22;1923;48.154;11.536;2023-02-17T14:29:00;15.00;99.90
3816;DHT22;1923;48.154;11.536;2023-02-17T14:31:28;15.00;99.90
3816;DHT22;1923;48.154;11.536;2023-02-17T14:33:59;15.10;99.90
3816;DHT22;1923;48.154;11.536;2023-02-17T14:36:31;15.10;99.90
3816;DHT22;1923;48.154;11.536;2023-02-17T14:39:01;15.10;99.90
3816;DHT22;1923;48.154;11.536;2023-02-17T14:41:30;15.20;99.90
3816;DHT22;1923;48.154;11.536;2023-02-17T14:43:58;15.20;99.90
3816;DHT22;1923;48.154;11.536;2023-02-17T14:46:26;15.20;99.90
3816;DHT22;1923;48.154;11.536;2023-02-17T14:48:54;15.20;99.90
3816;DHT22;1923;48.154;11.536;2023-02-17T14:51:24;15.10;99.90
3816;DHT22;1923;48.154;11.536;2023-02-17T14:53:54;15.10;99.90
3816;DHT22;1923;48.154;11.536;2023-02-17T14:56:25;15.10;99.90
3816;DHT22;1923;48.154;11.536;2023-02-17T14:58:54;15.00;99.90
3816;DHT22;1923;48.154;11.536;2023-02-17T15:01:23;14.90;99.90
3816;DHT22;1923;48.154;11.536;2023-02-17T15:03:52;15.00;99.90
3816;DHT22;1923;48.154;11.536;2023-02-17T15:06:22;14.90;99.90
3816;DHT22;1923;48.154;11.536;2023-02-17T15:08:57;14.90;99.90
3816;DHT22;1923;48.154;11.536;2023-02-17T15:11:31;14.90;99.90
3816;DHT22;1923;48.154;11.536;2023-02-17T15:14:00;14.90;99.90
3816;DHT22;1923;48.154;11.536;2023-02-17T15:16:29;14.70;99.90
3816;DHT22;1923;48.154;11.536;2023-02-17T15:18:57;14.70;99.90
3816;DHT22;1923;48.154;11.536;2023-02-17T15:21:27;14.70;99.90
3816;DHT22;1923;48.154;11.536;2023-02-17T15:23:58;14.60;99.90
3816;DHT22;1923;48.154;11.536;2023-02-17T15:26:27;14.70;99.90
3816;DHT22;1923;48.154;11.536;2023-02-17T15:28:57;14.70;99.90
3816;DHT22;1923;48.154;11.536;2023-02-17T15:31:27;14.60;99.90
3816;DHT22;1923;48.154;11.536;2023-02-17T15:33:59;14.60;99.90
3816;DHT22;1923;48.154;11.536;2023-02-17T15:36:27;14.60;99.90
3816;DHT22;1923;48.154;11.536;2023-02-17T15:38:55;14.60;99.90
3816;DHT22;1923;48.154;11.536;2023-02-17T15:41:26;14.70;99.90
3816;DHT22;1923;48.154;11.536;2023-02-17T15:43:57;14.60;99.90
3816;DHT22;1923;48.154;11.536;2023-02-17T15:46:29;14.60;99.90
3816;DHT22;1923;48.154;11.536;2023-02-17T15:48:58;14.60;99.90
3816;DHT22;1923;48.154;11.536;2023-02-17T15:51:26;14.60;99.90
3816;DHT22;1923;48.154;11.536;2023-02-17T15:53:54;14.50;99.90
3816;DHT22;1923;48.154;11.536;2023-02-17T15:56:26;14.40;99.90
3816;DHT22;1923;48.154;11.536;2023-02-17T15:58:57;14.50;99.90
3816;DHT22;1923;48.154;11.536;2023-02-17T16:01:27;14.40;99.90
3816;DHT22;1923;48.154;11.536;2023-02-17T16:03:56;14.50;99.90
3816;DHT22;1923;48.154;11.536;2023-02-17T16:06:24;14.40;99.90
3816;DHT22;1923;48.154;11.536;2023-02-17T16:08:53;14.40;99.90
3816;DHT22;1923;48.154;11.536;2023-02-17T16:11:22;14.40;99.90
3816;DHT22;1923;48.154;11.536;2023-02-17T16:13:51;14.30;99.90
3816;DHT22;1923;48.154;11.536;2023-02-17T16:16:22;14.30;99.90
3816;DHT22;1923;48.154;11.536;2023-02-17T16:18:51;14.20;99.90
3816;DHT22;1923;48.154;11.536;2023-02-17T16:21:18;14.20;99.90
3816;DHT22;1923;48.154;11.536;2023-02-17T16:23:46;14.00;99.90
3816;DHT22;1923;48.154;11.536;2023-02-17T16:26:23;13.90;99.90
3816;DHT22;1923;48.154;11.536;2023-02-17T16:28:53;13.80;99.90
3816;DHT22;1923;48.154;11.536;2023-02-17T16:31:22;13.80;99.90
3816;DHT22;1923;48.154;11.536;2023-02-17T16:33:50;13.70;99.90
3816;DHT22;1923;48.154;11.536;2023-02-17T16:36:19;13.60;99.90
3816;DHT22;1923;48.154;11.536;2023-02-17T16:38:48;13.50;99.90
3816;DHT22;1923;48.154;11.536;2023-02-17T16:41:18;13.50;99.90
3816;DHT22;1923;48.154;11.536;2023-02-17T16:43:46;13.50;99.90
3816;DHT22;1923;48.154;11.536;2023-02-17T16:46:25;13.40;99.90
3816;DHT22;1923;48.154;11.536;2023-02-17T16:48:55;13.30;99.90
3816;DHT22;1923;48.154;11.536;2023-02-17T16:51:24;13.20;99.90
3816;DHT22;1923;48.154;11.536;2023-02-17T16:53:52;13.10;99.90
3816;DHT22;1923;48.154;11.536;2023-02-17T16:56:23;13.10;99.90
3816;DHT22;1923;48.154;11.536;2023-02-17T16:58:53;13.10;99.90
3816;DHT22;1923;48.154;11.536;2023-02-17T17:01:22;13.00;99.90
3816;DHT22;1923;48.154;11.536;2023-02-17T17:03:50;12.90;99.90
3816;DHT22;1923;48.154;11.536;2023-02-17T17:06:22;12.90;99.90
3816;DHT22;1923;48.154;11.536;2023-02-17T17:08:51;12.80;99.90
3816;DHT22;1923;48.154;11.536;2023-02-17T17:11:22;12.80;99.90
3816;DHT22;1923;48.154;11.536;2023-02-17T17:13:51;12.80;99.90
3816;DHT22;1923;48.154;11.536;2023-02-17T17:16:22;12.80;99.90
3816;DHT22;1923;48.154;11.536;2023-02-17T17:18:51;12.80;99.90
3816;DHT22;1923;48.154;11.536;2023-02-17T17:21:19;12.70;99.90
3816;DHT22;1923;48.154;11.536;2023-02-17T17:23:48;12.70;99.90
3816;DHT22;1923;48.154;11.536;2023-02-17T17:26:23;12.70;99.90
3816;DHT22;1923;48.154;11.536;2023-02-17T17:28:53;12.80;99.90
3816;DHT22;1923;48.154;11.536;2023-02-17T17:31:23;12.90;99.90
3816;DHT22;1923;48.154;11.536;2023-02-17T17:33:52;12.80;99.90
3816;DHT22;1923;48.154;11.536;2023-02-17T17:36:24;12.90;99.90
3816;DHT22;1923;48.154;11.536;2023-02-17T17:38:54;12.80;99.90
3816;DHT22;1923;48.154;11.536;2023-02-17T17:41:24;12.70;99.90
3816;DHT22;1923;48.154;11.536;2023-02-17T17:43:52;12.60;99.90
3816;DHT22;1923;48.154;11.536;2023-02-17T17:46:23;12.50;99.90
3816;DHT22;1923;48.154;11.536;2023-02-17T17:48:54;12.50;99.90
3816;DHT22;1923;48.154;11.536;2023-02-17T17:51:22;12.50;99.90
3816;DHT22;1923;48.154;11.536;2023-02-17T17:53:50;12.40;99.90
3816;DHT22;1923;48.154;11.536;2023-02-17T17:56:20;12.50;99.90
3816;DHT22;1923;48.154;11.536;2023-02-17T17:58:49;12.40;99.90
3816;DHT22;1923;48.154;11.536;2023-02-17T18:01:18;12.30;99.90
3816;DHT22;1923;48.154;11.536;2023-02-17T18:03:48;12.40;99.90
3816;DHT22;1923;48.154;11.536;2023-02-17T18:06:20;12.40;99.90
3816;DHT22;1923;48.154;11.536;2023-02-17T18:08:49;12.30;99.90
3816;DHT22;1923;48.154;11.536;2023-02-17T18:11:20;12.30;99.90
3816;DHT22;1923;48.154;11.536;2023-02-17T18:13:50;12.20;99.90
3816;DHT22;1923;48.154;11.536;2023-02-17T18:16:18;12.20;99.90
3816;DHT22;1923;48.154;11.536;2023-02-17T18:18:49;12.20;99.90
3816;DHT22;1923;48.154;11.536;2023-02-17T18:21:18;12.10;99.90
3816;DHT22;1923;48.154;11.536;2023-02-17T18:23:46;12.10;99.90
3816;DHT22;1923;48.154;11.536;2023-02-17T18:26:14;12.00;99.90
3816;DHT22;1923;48.154;11.536;2023-02-17T18:28:42;12.10;99.90
3816;DHT22;1923;48.154;11.536;2023-02-17T18:31:12;12.20;99.90
3816;DHT22;1923;48.154;11.536;2023-02-17T18:33:41;12.10;99.90
3816;DHT22;1923;48.154;11.536;2023-02-17T18:36:13;12.10;99.90
3816;DHT22;1923;48.154;11.536;2023-02-17T18:38:42;12.20;99.90
3816;DHT22;1923;48.154;11.536;2023-02-17T18:41:16;12.20;99.90
3816;DHT22;1923;48.154;11.536;2023-02-17T18:43:44;12.10;99.90
3816;DHT22;1923;48.154;11.536;2023-02-17T18:46:13;12.10;99.90
3816;DHT22;1923;48.154;11.536;2023-02-17T18:48:41;12.10;99.90
3816;DHT22;1923;48.154;11.536;2023-02-17T18:51:12;12.10;99.90
3816;DHT22;1923;48.154;11.536;2023-02-17T18:53:41;12.10;99.90
3816;DHT22;1923;48.154;11.536;2023-02-17T18:56:10;12.10;99.90
3816;DHT22;1923;48.154;11.536;2023-02-17T18:58:39;12.10;99.90
3816;DHT22;1923;48.154;11.536;2023-02-17T19:01:13;12.20;99.90
3816;DHT22;1923;48.154;11.536;2023-02-17T19:03:42;12.20;99.90
3816;DHT22;1923;48.154;11.536;2023-02-17T19:06:13;12.30;99.90
3816;DHT22;1923;48.154;11.536;2023-02-17T19:08:41;12.30;99.90
3816;DHT22;1923;48.154;11.536;2023-02-17T19:11:10;12.30;99.90
3816;DHT22;1923;48.154;11.536;2023-02-17T19:13:38;12.30;99.90
3816;DHT22;1923;48.154;11.536;2023-02-17T19:16:09;12.20;99.90
3816;DHT22;1923;48.154;11.536;2023-02-17T19:18:39;12.20;99.90
3816;DHT22;1923;48.154;11.536;2023-02-17T19:21:08;12.20;99.90
3816;DHT22;1923;48.154;11.536;2023-02-17T19:23:37;12.10;99.90
3816;DHT22;1923;48.154;11.536;2023-02-17T19:29:47;12.10;99.90
3816;DHT22;1923;48.154;11.536;2023-02-17T19:32:32;12.10;99.90
3816;DHT22;1923;48.154;11.536;2023-02-17T19:35:00;12.10;99.90
3816;DHT22;1923;48.154;11.536;2023-02-17T19:37:29;12.10;99.90
3816;DHT22;1923;48.154;11.536;2023-02-17T19:39:58;12.10;99.90
3816;DHT22;1923;48.154;11.536;2023-02-17T19:42:27;12.10;99.90
3816;DHT22;1923;48.154;11.536;2023-02-17T19:44:55;12.10;99.90
3816;DHT22;1923;48.154;11.536;2023-02-17T19:47:23;12.10;99.90
3816;DHT22;1923;48.154;11.536;2023-02-17T19:49:54;12.10;99.90
3816;DHT22;1923;48.154;11.536;2023-02-17T19:52:22;12.10;99.90
3816;DHT22;1923;48.154;11.536;2023-02-17T19:54:50;12.10;99.90
3816;DHT22;1923;48.154;11.536;2023-02-17T19:57:20;12.10;99.90
3816;DHT22;1923;48.154;11.536;2023-02-17T19:59:48;12.20;99.90
3816;DHT22;1923;48.154;11.536;2023-02-17T20:02:16;12.20;99.90
3816;DHT22;1923;48.154;11.536;2023-02-17T20:04:44;12.30;99.90
3816;DHT22;1923;48.154;11.536;2023-02-17T20:07:13;12.20;99.90
3816;DHT22;1923;48.154;11.536;2023-02-17T20:09:41;12.20;99.90
3816;DHT22;1923;48.154;11.536;2023-02-17T20:12:09;12.20;99.90
3816;DHT22;1923;48.154;11.536;2023-02-17T20:14:38;12.20;99.90
3816;DHT22;1923;48.154;11.536;2023-02-17T20:17:07;12.20;99.90
3816;DHT22;1923;48.154;11.536;2023-02-17T20:19:36;12.30;99.90
3816;DHT22;1923;48.154;11.536;2023-02-17T20:22:05;12.30;99.90
3816;DHT22;1923;48.154;11.536;2023-02-17T20:24:33;12.40;99.90
3816;DHT22;1923;48.154;11.536;2023-02-17T20:27:02;12.50;99.90
3816;DHT22;1923;48.154;11.536;2023-02-17T20:29:30;12.50;99.90
3816;DHT22;1923;48.154;11.536;2023-02-17T20:32:01;12.30;99.90
3816;DHT22;1923;48.154;11.536;2023-02-17T20:34:31;12.30;99.90
3816;DHT22;1923;48.154;11.536;2023-02-17T20:36:59;12.30;99.90
3816;DHT22;1923;48.154;11.536;2023-02-17T20:39:28;12.40;99.90
3816;DHT22;1923;48.154;11.536;2023-02-17T20:41:57;12.40;99.90
3816;DHT22;1923;48.154;11.536;2023-02-17T20:44:26;12.40;99.90
3816;DHT22;1923;48.154;11.536;2023-02-17T20:46:55;12.50;99.90
3816;DHT22;1923;48.154;11.536;2023-02-17T20:49:25;12.60;99.90
3816;DHT22;1923;48.154;11.536;2023-02-17T20:51:53;12.60;99.90
3816;DHT22;1923;48.154;11.536;2023-02-17T20:54:21;12.70;99.90
3816;DHT22;1923;48.154;11.536;2023-02-17T20:56:51;12.70;99.90
3816;DHT22;1923;48.154;11.536;2023-02-17T20:59:21;12.80;99.90
3816;DHT22;1923;48.154;11.536;2023-02-17T21:01:49;12.70;99.90
3816;DHT22;1923;48.154;11.536;2023-02-17T21:04:17;12.80;99.90
3816;DHT22;1923;48.154;11.536;2023-02-17T21:06:46;12.90;99.90
3816;DHT22;1923;48.154;11.536;2023-02-17T21:09:17;12.90;99.90
3816;DHT22;1923;48.154;11.536;2023-02-17T21:11:45;13.00;99.90
3816;DHT22;1923;48.154;11.536;2023-02-17T21:14:13;13.00;99.90
3816;DHT22;1923;48.154;11.536;2023-02-17T21:16:41;12.90;99.90
3816;DHT22;1923;48.154;11.536;2023-02-17T21:19:09;13.00;99.90
3816;DHT22;1923;48.154;11.536;2023-02-17T21:21:38;13.00;99.90
3816;DHT22;1923;48.154;11.536;2023-02-17T21:24:07;13.00;99.90
3816;DHT22;1923;48.154;11.536;2023-02-17T21:26:36;13.00;99.90
3816;DHT22;1923;48.154;11.536;2023-02-17T21:29:04;13.00;99.90
3816;DHT22;1923;48.154;11.536;2023-02-17T21:31:32;13.00;99.90
3816;DHT22;1923;48.154;11.536;2023-02-17T21:34:01;13.00;99.90
3816;DHT22;1923;48.154;11.536;2023-02-17T21:36:30;13.10;99.90
3816;DHT22;1923;48.154;11.536;2023-02-17T21:38:59;13.00;99.90
3816;DHT22;1923;48.154;11.536;2023-02-17T21:41:28;13.10;99.90
3816;DHT22;1923;48.154;11.536;2023-02-17T21:43:58;13.10;99.90
3816;DHT22;1923;48.154;11.536;2023-02-17T21:46:43;13.10;99.90
3816;DHT22;1923;48.154;11.536;2023-02-17T21:49:12;13.20;99.90
3816;DHT22;1923;48.154;11.536;2023-02-17T21:51:41;13.20;99.90
3816;DHT22;1923;48.154;11.536;2023-02-17T21:54:09;13.10;99.90
3816;DHT22;1923;48.154;11.536;2023-02-17T21:56:38;13.10;99.90
3816;DHT22;1923;48.154;11.536;2023-02-17T21:59:07;13.00;99.90
3816;DHT22;1923;48.154;11.536;2023-02-17T22:01:35;13.10;99.90
3816;DHT22;1923;48.154;11.536;2023-02-17T22:04:04;13.00;99.90
3816;DHT22;1923;48.154;11.536;2023-02-17T22:06:34;13.00;99.90
3816;DHT22;1923;48.154;11.536;2023-02-17T22:09:03;13.10;99.90
3816;DHT22;1923;48.154;11.536;2023-02-17T22:11:34;13.10;99.90
3816;DHT22;1923;48.154;11.536;2023-02-17T22:14:05;13.00;99.90
3816;DHT22;1923;48.154;11.536;2023-02-17T22:16:34;13.00;99.90
3816;DHT22;1923;48.154;11.536;2023-02-17T22:19:05;13.10;99.90
3816;DHT22;1923;48.154;11.536;2023-02-17T22:21:33;13.00;99.90
3816;DHT22;1923;48.154;11.536;2023-02-17T22:24:01;13.10;99.90
3816;DHT22;1923;48.154;11.536;2023-02-17T22:26:30;13.10;99.90
3816;DHT22;1923;48.154;11.536;2023-02-17T22:28:58;13.10;99.90
3816;DHT22;1923;48.154;11.536;2023-02-17T22:31:28;13.10;99.90
3816;DHT22;1923;48.154;11.536;2023-02-17T22:33:59;13.10;99.90
3816;DHT22;1923;48.154;11.536;2023-02-17T22:36:30;13.10;99.90
3816;DHT22;1923;48.154;11.536;2023-02-17T22:38:59;13.10;99.90
3816;DHT22;1923;48.154;11.536;2023-02-17T22:41:27;13.00;99.90
3816;DHT22;1923;48.154;11.536;2023-02-17T22:43:55;13.00;99.90
3816;DHT22;1923;48.154;11.536;2023-02-17T22:46:24;13.00;99.90
3816;DHT22;1923;48.154;11.536;2023-02-17T22:48:55;13.00;99.90
3816;DHT22;1923;48.154;11.536;2023-02-17T22:51:26;13.00;99.90
3816;DHT22;1923;48.154;11.536;2023-02-17T22:53:55;13.00;99.90
3816;DHT22;1923;48.154;11.536;2023-02-17T22:56:23;12.90;99.90
3816;DHT22;1923;48.154;11.536;2023-02-17T22:58:52;12.90;99.90
3816;DHT22;1923;48.154;11.536;2023-02-17T23:01:24;12.90;99.90
3816;DHT22;1923;48.154;11.536;2023-02-17T23:03:54;13.00;99.90
3816;DHT22;1923;48.154;11.536;2023-02-17T23:06:25;13.00;99.90
3816;DHT22;1923;48.154;11.536;2023-02-17T23:08:53;13.00;99.90
3816;DHT22;1923;48.154;11.536;2023-02-17T23:11:23;12.90;99.90
3816;DHT22;1923;48.154;11.536;2023-02-17T23:14:10;12.90;99.90
3816;DHT22;1923;48.154;11.536;2023-02-17T23:16:39;12.90;99.90
3816;DHT22;1923;48.154;11.536;2023-02-17T23:19:10;13.00;99.90
3816;DHT22;1923;48.154;11.536;2023-02-17T23:21:41;12.90;99.90